El Vigia, Venezuela
Current Conditions -  °F | °C
As of 10:00 PM on Wednesday 22 Oct 2014 (Local Time) from SVMD Reporting Station
Clear Clear  
Wind Chill: 19°   Ceiling: Unl
Heat Index: 19°   Visibility: 6mi
Dew Point: 18°   Wind: 2mph
Humidity: 94%   Direction: 340°NNW
Pressure: 30.18"   Gusts: NA
Location:  8.63°N, 71.65°W
Report Text: SVMD 230200Z 34002KT CAVOK 19/18 Q1022
Loading
Personal Weather Stations






























Interactive Weather Map
Tropical Storm Tracking
New forecast layout! Learn more

10-Day Weather Forecast

Advertisements
Track Severe Weather on mobile